Tomah, WI

9:25 AM CST on November 24, 2014 (GMT -0600)
Water Mill | Change Station
CLOSE
Current Station
Personal Weather Station
Location: Tomah, WI
Elevation: 950 ft
Nearby Weather Stations
Active Advisory: Winter Weather Advisory Active Notice: Public Information Statement

Elev 950 ft 44.05 °N, 90.46 °W | Updated 10 seconds ago

Snow
Snow
33.2 °F
Feels Like 24 °F
N
12.0
Wind Variable Wind from West
Gusts 0.0 mph

Today
High -- | Low -- °F
--% Chance of Precip.
Yesterday
High -- | Low -- °F
Precip. -- in
7:08 AM 4:28 PM
Waxing Crescent, 5% visible
Pressure 29.19 in
Visibility 3.0 miles
Clouds Overcast 900 ft
Windchill 24 °F
Dew Point 33 °F
Humidity 100%
Rainfall 0.09 in
Snow Depth Not available.
UV 0.0 out of 12
Pollen .10 out of 12
Air Quality Not available.
Flu Activity Not available.
METAR KVOK 241458Z 29012G19KT 3SM -SNPL OVC009 02/02 A2916 RMK AO2A SLP883 60002 52018

More Conditions Fewer Conditions

Pressure 29.19 in
Visibility 3.0 miles
Clouds Overcast 900 ft
Windchill 24 °F
Dew Point 33 °F
Humidity 100%
Rainfall 0.09 in
Snow Depth Not available.
UV 0.0 out of 12
Pollen .10 out of 12
Air Quality Not available.
Flu Activity Not available.
METAR KVOK 241458Z 29012G19KT 3SM -SNPL OVC009 02/02 A2916 RMK AO2A SLP883 60002 52018

More Conditions Fewer Conditions

10-Day Weather Forecast

Almanac

Astronomy

Nov. 24, 2014 Rise Set
Actual Time
Civil Twilight
Nautical Twilight
Astronomical Twilight
Moon
Length of Visible Light
Length of Day
Tomorrow will be .
, % of the Moon is Illuminated

Today's Extremes

State Highs State Lows

Community

WunderPhotos

Upload Photos

1,773,359 photos uploaded!

WunderBlogs® & News

Nearby

Air Quality

  Air Quality AQ Index Pollutant
Not available.

Snow Depth

Station Depth Elevation

Earthquake Activity

City Distance Mag. Time & Date
Minimum magnitude displayed is 2.5.

Coastal Water Temperatures

Place Temperature

Nearby Weather Stations